createdAt,value
2019-03-23T00:01:59.948Z,72.17
2019-03-23T00:04:32.438Z,72.19
2019-03-23T00:07:04.827Z,72.37
2019-03-23T00:09:37.113Z,72.14
2019-03-23T00:12:09.880Z,72.09
2019-03-23T00:14:42.119Z,71.60
2019-03-23T00:17:14.399Z,71.61
2019-03-23T00:19:46.613Z,71.62
2019-03-23T00:22:18.880Z,71.48
2019-03-23T00:24:51.116Z,71.36
2019-03-23T00:27:23.431Z,71.40
2019-03-23T00:29:55.730Z,71.33
2019-03-23T00:32:28.305Z,71.28
2019-03-23T00:35:00.594Z,71.40
2019-03-23T00:37:33.090Z,71.54
2019-03-23T00:40:05.504Z,71.59
2019-03-23T00:42:37.829Z,71.78
2019-03-23T00:45:10.502Z,71.96
2019-03-23T00:47:43.025Z,72.08
2019-03-23T00:50:15.291Z,71.99
2019-03-23T00:52:47.639Z,72.01
2019-03-23T00:55:20.170Z,72.08
2019-03-23T00:57:52.411Z,71.97
2019-03-23T01:00:24.878Z,71.82
2019-03-23T01:02:57.173Z,71.84
2019-03-23T01:05:30.494Z,71.98
2019-03-23T01:08:02.720Z,71.87
2019-03-23T01:10:35.067Z,71.93
2019-03-23T01:13:07.522Z,72.12
2019-03-23T01:15:39.795Z,72.10
2019-03-23T01:18:12.213Z,72.18
2019-03-23T01:20:49.499Z,71.99
2019-03-23T01:23:18.564Z,71.94
2019-03-23T01:25:50.821Z,71.95
2019-03-23T01:28:23.314Z,72.13
2019-03-23T01:30:55.608Z,72.17
2019-03-23T01:33:27.894Z,72.30
2019-03-23T01:36:00.318Z,72.43
2019-03-23T01:38:32.657Z,72.18
2019-03-23T01:41:04.894Z,72.23
2019-03-23T01:43:37.130Z,72.35
2019-03-23T01:46:09.340Z,72.52
2019-03-23T01:48:41.551Z,72.69
2019-03-23T01:51:13.932Z,72.84
2019-03-23T01:53:46.298Z,73.15
2019-03-23T01:56:18.562Z,73.78
2019-03-23T01:58:50.797Z,74.43
2019-03-23T02:01:23.058Z,75.21
2019-03-23T02:03:55.268Z,75.58
2019-03-23T02:06:27.668Z,75.61
2019-03-23T02:09:00.059Z,75.21
2019-03-23T02:11:32.366Z,74.76
2019-03-23T02:14:04.617Z,74.44
2019-03-23T02:16:36.869Z,74.58
2019-03-23T02:19:09.159Z,74.89
2019-03-23T02:21:42.545Z,75.32
2019-03-23T02:24:14.833Z,75.73
2019-03-23T02:26:47.132Z,76.18
2019-03-23T02:29:19.381Z,76.53
2019-03-23T02:31:51.718Z,76.95
2019-03-23T02:34:24.035Z,77.10
2019-03-23T02:36:56.412Z,77.26
2019-03-23T02:39:28.692Z,77.44
2019-03-23T02:42:01.091Z,77.49
2019-03-23T02:44:33.480Z,77.47
2019-03-23T02:47:05.748Z,77.76
2019-03-23T02:49:38.131Z,77.90
2019-03-23T02:52:10.360Z,77.96
2019-03-23T02:54:42.633Z,78.08
2019-03-23T02:57:14.879Z,78.02
2019-03-23T02:59:49.303Z,77.96
2019-03-23T03:02:21.585Z,78.07
2019-03-23T03:04:53.814Z,78.14
2019-03-23T03:07:26.127Z,78.18
2019-03-23T03:09:58.292Z,78.21
2019-03-23T03:12:30.563Z,78.25
2019-03-23T03:15:03.038Z,78.28
2019-03-23T03:17:36.348Z,78.44
2019-03-23T03:20:08.699Z,78.41
2019-03-23T03:22:40.754Z,78.53
2019-03-23T03:25:13.051Z,78.76
2019-03-23T03:27:45.315Z,78.65
2019-03-23T03:30:17.589Z,78.66
2019-03-23T03:32:50.038Z,78.68
2019-03-23T03:35:22.408Z,78.79
2019-03-23T03:37:57.026Z,78.87
2019-03-23T03:40:28.716Z,79.05
2019-03-23T03:43:00.971Z,79.14
2019-03-23T03:45:33.190Z,78.86
2019-03-23T03:48:05.440Z,78.92
2019-03-23T03:50:38.061Z,79.02
2019-03-23T03:53:10.284Z,78.51
2019-03-23T03:55:42.567Z,77.94
2019-03-23T03:58:14.845Z,77.32
2019-03-23T04:00:48.138Z,76.75
2019-03-23T04:03:20.410Z,76.33
2019-03-23T04:05:52.868Z,76.02
2019-03-23T04:08:25.107Z,75.87
2019-03-23T04:10:57.573Z,75.65
2019-03-23T04:13:29.781Z,75.48
2019-03-23T04:16:01.868Z,75.38
2019-03-23T04:18:34.157Z,75.07
2019-03-23T04:21:06.599Z,75.04
2019-03-23T04:23:38.885Z,75.06
2019-03-23T04:26:11.083Z,75.05
2019-03-23T04:28:43.343Z,75.02
2019-03-23T04:31:15.579Z,74.93
2019-03-23T04:33:47.862Z,74.90
2019-03-23T04:36:20.128Z,74.92
2019-03-23T04:38:54.683Z,74.83
2019-03-23T04:41:27.949Z,74.92
2019-03-23T04:44:00.275Z,74.92
2019-03-23T04:46:32.545Z,74.90
2019-03-23T04:49:04.743Z,74.76
2019-03-23T04:51:37.091Z,74.81
2019-03-23T04:54:09.514Z,74.81
2019-03-23T04:56:42.045Z,74.63
2019-03-23T04:59:14.292Z,74.69
2019-03-23T05:01:46.502Z,74.59
2019-03-23T05:04:18.864Z,74.69
2019-03-23T05:06:51.317Z,74.73
2019-03-23T05:09:23.578Z,74.77
2019-03-23T05:11:58.229Z,74.76
2019-03-23T05:14:30.503Z,74.79
2019-03-23T05:17:02.714Z,74.70
2019-03-23T05:19:34.936Z,74.72
2019-03-23T05:22:07.292Z,74.73
2019-03-23T05:24:39.561Z,74.77
2019-03-23T05:27:11.778Z,74.75
2019-03-23T05:29:44.049Z,74.86
2019-03-23T05:32:16.276Z,74.83
2019-03-23T05:34:48.493Z,74.91
2019-03-23T05:37:21.176Z,74.91
2019-03-23T05:39:53.405Z,74.95
2019-03-23T05:42:25.654Z,74.89
2019-03-23T05:44:57.963Z,75.00
2019-03-23T05:47:30.236Z,74.87
2019-03-23T05:50:02.813Z,74.83
2019-03-23T05:52:35.249Z,74.83
2019-03-23T05:55:07.477Z,74.81
2019-03-23T05:57:39.732Z,74.82
2019-03-23T06:00:13.153Z,74.72
2019-03-23T06:02:45.401Z,74.78
2019-03-23T06:05:17.601Z,74.84
2019-03-23T06:07:49.858Z,74.82
2019-03-23T06:10:23.699Z,74.67
2019-03-23T06:12:55.982Z,74.72
2019-03-23T06:15:28.379Z,74.75
2019-03-23T06:18:00.735Z,74.75
2019-03-23T06:20:33.022Z,74.67
2019-03-23T06:23:05.335Z,74.71
2019-03-23T06:25:37.560Z,74.74
2019-03-23T06:28:09.842Z,74.80
2019-03-23T06:30:42.144Z,74.87
2019-03-23T06:33:15.568Z,74.77
2019-03-23T06:35:49.112Z,74.62
2019-03-23T06:38:21.454Z,74.41
2019-03-23T06:40:53.751Z,74.37
2019-03-23T06:43:26.000Z,74.41
2019-03-23T06:45:58.259Z,74.25
2019-03-23T06:48:30.484Z,74.09
2019-03-23T06:51:03.416Z,74.16
2019-03-23T06:53:35.860Z,73.98
2019-03-23T06:56:08.383Z,73.77
2019-03-23T06:58:40.450Z,73.59
2019-03-23T07:01:12.726Z,73.41
2019-03-23T07:03:46.092Z,72.97
2019-03-23T07:06:18.392Z,72.79
2019-03-23T07:08:50.653Z,72.54
2019-03-23T07:11:22.880Z,72.64
2019-03-23T07:13:55.182Z,72.41
2019-03-23T07:16:27.446Z,72.18
2019-03-23T07:18:59.720Z,72.29
2019-03-23T07:21:31.992Z,72.33
2019-03-23T07:24:04.502Z,71.95
2019-03-23T07:26:37.161Z,72.04
2019-03-23T07:29:10.661Z,71.78
2019-03-23T07:31:42.922Z,71.71
2019-03-23T07:34:15.296Z,71.77
2019-03-23T07:36:47.612Z,71.12
2019-03-23T07:39:27.271Z,71.18
2019-03-23T07:41:54.442Z,70.69
2019-03-23T07:44:27.386Z,70.41
2019-03-23T07:46:59.738Z,70.57
2019-03-23T07:49:32.360Z,70.41
2019-03-23T07:52:04.443Z,70.82
2019-03-23T07:54:36.770Z,70.59
2019-03-23T07:57:09.396Z,70.88
2019-03-23T07:59:42.003Z,70.77
2019-03-23T08:02:14.311Z,70.80
2019-03-23T08:04:47.057Z,70.22
2019-03-23T08:07:19.410Z,69.77
2019-03-23T08:09:51.906Z,69.92
2019-03-23T08:12:24.133Z,70.27
2019-03-23T08:14:56.381Z,69.99
2019-03-23T08:17:30.310Z,69.84
2019-03-23T08:20:02.580Z,70.89
2019-03-23T08:22:34.814Z,70.49
2019-03-23T08:25:07.120Z,70.06
2019-03-23T08:27:41.595Z,70.19
2019-03-23T08:30:13.499Z,70.06
2019-03-23T08:32:46.443Z,71.26
2019-03-23T08:35:20.802Z,70.71
2019-03-23T08:37:52.998Z,71.53
2019-03-23T08:40:25.506Z,72.30
2019-03-23T08:42:57.994Z,72.27
2019-03-23T08:45:30.772Z,71.35
2019-03-23T08:48:03.179Z,71.68
2019-03-23T08:50:37.601Z,72.81
2019-03-23T08:53:10.348Z,71.44
2019-03-23T08:55:42.841Z,71.39
2019-03-23T08:58:15.653Z,71.83
2019-03-23T09:00:48.257Z,72.27
2019-03-23T09:03:20.588Z,71.20
2019-03-23T09:05:52.947Z,71.13
2019-03-23T09:08:25.405Z,70.63
2019-03-23T09:11:00.193Z,70.42
2019-03-23T09:13:40.632Z,70.23
2019-03-23T09:16:09.623Z,69.45
2019-03-23T09:18:41.984Z,68.90
2019-03-23T09:21:14.612Z,68.61
2019-03-23T09:23:49.244Z,68.01
2019-03-23T09:26:21.724Z,68.35
2019-03-23T09:28:54.459Z,67.98
2019-03-23T09:31:29.442Z,67.67
2019-03-23T09:34:01.752Z,67.42
2019-03-23T09:36:34.017Z,67.18
2019-03-23T09:39:06.372Z,67.85
2019-03-23T09:41:39.124Z,67.28
2019-03-23T09:44:11.393Z,65.98
2019-03-23T09:46:43.889Z,64.94
2019-03-23T09:49:16.368Z,63.77
2019-03-23T09:51:48.675Z,64.49
2019-03-23T09:54:21.168Z,65.22
2019-03-23T09:56:53.497Z,64.40
2019-03-23T09:59:25.878Z,64.73
2019-03-23T10:01:58.309Z,64.24
2019-03-23T10:04:30.558Z,63.26
2019-03-23T10:07:03.981Z,63.60
2019-03-23T10:09:36.335Z,63.25
2019-03-23T10:12:08.700Z,63.04
2019-03-23T10:14:41.070Z,61.85
2019-03-23T10:17:13.163Z,61.27
2019-03-23T10:19:45.730Z,61.19
2019-03-23T10:22:18.441Z,61.32
2019-03-23T10:24:50.941Z,59.47
2019-03-23T10:27:23.215Z,61.66
2019-03-23T10:29:55.999Z,62.02
2019-03-23T10:32:28.385Z,62.29
2019-03-23T10:35:00.624Z,62.92
2019-03-23T10:37:33.065Z,63.72
2019-03-23T10:40:07.519Z,64.98
2019-03-23T10:42:39.543Z,65.28
2019-03-23T10:45:11.904Z,65.30
2019-03-23T10:47:44.462Z,64.71
2019-03-23T10:50:17.079Z,65.00
2019-03-23T10:52:49.444Z,64.45
2019-03-23T10:55:21.787Z,63.59
2019-03-23T10:57:54.396Z,63.55
2019-03-23T11:00:27.461Z,64.14
2019-03-23T11:03:00.300Z,63.82
2019-03-23T11:05:32.666Z,66.26
2019-03-23T11:08:04.966Z,65.87
2019-03-23T11:10:41.794Z,66.04
2019-03-23T11:13:11.708Z,65.47
2019-03-23T11:15:44.423Z,65.86
2019-03-23T11:18:16.793Z,64.95
2019-03-23T11:20:49.545Z,65.09
2019-03-23T11:23:21.970Z,64.04
2019-03-23T11:25:54.911Z,62.68
2019-03-23T11:28:27.204Z,63.69
2019-03-23T11:30:59.821Z,62.62
2019-03-23T11:33:32.145Z,62.03
2019-03-23T11:36:04.596Z,62.37
2019-03-23T11:38:36.971Z,62.97
2019-03-23T11:41:09.415Z,62.48
2019-03-23T11:43:42.247Z,62.77
2019-03-23T11:46:16.907Z,62.62
2019-03-23T11:48:49.175Z,62.15
2019-03-23T11:51:21.987Z,62.31
2019-03-23T11:53:54.301Z,62.34
2019-03-23T11:56:30.607Z,62.78
2019-03-23T11:59:00.988Z,63.06
2019-03-23T12:01:33.574Z,62.96
2019-03-23T12:04:05.910Z,63.55
2019-03-23T12:06:38.171Z,64.29
2019-03-23T12:09:10.886Z,64.46
2019-03-23T12:11:43.044Z,64.14
2019-03-23T12:14:15.424Z,63.86
2019-03-23T12:16:47.849Z,64.20
2019-03-23T12:19:20.208Z,64.19
2019-03-23T12:21:52.748Z,64.87
2019-03-23T12:24:25.259Z,64.83
2019-03-23T12:26:57.899Z,64.71
2019-03-23T12:29:30.222Z,64.37
2019-03-23T12:32:02.576Z,64.45
2019-03-23T12:34:34.813Z,64.16
2019-03-23T12:37:07.128Z,64.52
2019-03-23T12:39:39.589Z,63.85
2019-03-23T12:42:11.922Z,63.63
2019-03-23T12:44:44.458Z,63.56
2019-03-23T12:47:16.892Z,62.57
2019-03-23T12:49:49.159Z,62.90
2019-03-23T12:52:21.496Z,61.77
2019-03-23T12:54:54.032Z,62.11
2019-03-23T12:57:26.567Z,63.12
2019-03-23T12:59:58.955Z,62.67
2019-03-23T13:02:31.508Z,61.71
2019-03-23T13:05:04.160Z,62.24
2019-03-23T13:07:36.525Z,61.65
2019-03-23T13:10:08.951Z,62.27
2019-03-23T13:12:41.083Z,62.49
2019-03-23T13:15:13.553Z,61.24
2019-03-23T13:17:46.867Z,61.94
2019-03-23T13:20:19.325Z,61.77
2019-03-23T13:22:51.887Z,60.43
2019-03-23T13:25:24.573Z,60.43
2019-03-23T13:27:57.107Z,59.41
2019-03-23T13:30:29.484Z,57.82
2019-03-23T13:33:02.038Z,55.64
2019-03-23T13:35:34.374Z,54.54
2019-03-23T13:38:06.764Z,53.89
2019-03-23T13:40:39.441Z,52.45
2019-03-23T13:43:11.798Z,51.37
2019-03-23T13:45:45.039Z,51.14
2019-03-23T13:48:18.062Z,49.97
2019-03-23T13:50:50.970Z,49.91
2019-03-23T13:53:23.329Z,48.92
2019-03-23T13:55:55.575Z,48.41
2019-03-23T13:58:28.438Z,47.89
2019-03-23T14:01:01.231Z,48.29
2019-03-23T14:03:33.546Z,47.25
2019-03-23T14:06:07.779Z,48.09
2019-03-23T14:08:40.208Z,47.95
2019-03-23T14:11:12.752Z,48.09
2019-03-23T14:13:44.859Z,47.48
2019-03-23T14:16:17.569Z,47.97
2019-03-23T14:18:50.088Z,48.19
2019-03-23T14:21:22.403Z,48.74
2019-03-23T14:23:55.273Z,48.57
2019-03-23T14:26:27.646Z,49.44
2019-03-23T14:28:59.911Z,48.98
2019-03-23T14:31:32.348Z,49.23
2019-03-23T14:34:05.023Z,48.59
2019-03-23T14:36:37.522Z,48.47
2019-03-23T14:39:09.883Z,48.41
2019-03-23T14:41:42.244Z,47.37
2019-03-23T14:44:14.556Z,46.21
2019-03-23T14:46:46.919Z,45.69
2019-03-23T14:49:19.366Z,45.61
2019-03-23T14:51:51.967Z,45.66
2019-03-23T14:54:24.340Z,45.00
2019-03-23T14:56:57.376Z,42.64
2019-03-23T14:59:29.615Z,42.39
2019-03-23T15:02:01.983Z,42.42
2019-03-23T15:04:34.629Z,43.22
2019-03-23T15:07:07.539Z,42.38
2019-03-23T15:09:39.857Z,42.63
2019-03-23T15:12:15.277Z,43.20
2019-03-23T15:14:46.162Z,43.34
2019-03-23T15:17:18.540Z,43.61
2019-03-23T15:19:50.857Z,43.92
2019-03-23T15:22:23.145Z,43.92
2019-03-23T15:24:55.445Z,42.92
2019-03-23T15:27:27.777Z,43.13
2019-03-23T15:30:00.292Z,41.92
2019-03-23T15:32:33.774Z,41.11
2019-03-23T15:35:06.242Z,39.80
2019-03-23T15:37:40.519Z,40.45
2019-03-23T15:40:12.834Z,40.88
2019-03-23T15:42:45.182Z,41.36
2019-03-23T15:45:18.088Z,40.77
2019-03-23T15:47:50.700Z,40.79
2019-03-23T15:50:23.012Z,39.96
2019-03-23T15:52:55.952Z,39.72
2019-03-23T15:55:28.350Z,40.55
2019-03-23T15:58:00.804Z,41.32
2019-03-23T16:00:32.990Z,42.43
2019-03-23T16:03:05.263Z,43.60
2019-03-23T16:05:37.586Z,44.39
2019-03-23T16:08:10.011Z,45.00
2019-03-23T16:10:49.439Z,44.56
2019-03-23T16:13:25.541Z,43.77
2019-03-23T16:15:58.335Z,42.63
2019-03-23T16:18:30.673Z,42.07
2019-03-23T16:21:03.122Z,42.30
2019-03-23T16:23:35.501Z,42.93
2019-03-23T16:26:07.873Z,42.88
2019-03-23T16:28:40.417Z,40.53
2019-03-23T16:31:12.730Z,40.13
2019-03-23T16:33:45.069Z,41.97
2019-03-23T16:36:17.325Z,42.42
2019-03-23T16:38:49.569Z,43.08
2019-03-23T16:41:21.841Z,44.06
2019-03-23T16:43:54.099Z,44.25
2019-03-23T16:46:26.410Z,44.28
2019-03-23T16:49:00.324Z,44.72
2019-03-23T16:51:32.724Z,45.01
2019-03-23T16:54:05.944Z,45.71
2019-03-23T16:56:39.138Z,46.38
2019-03-23T16:59:11.487Z,46.64
2019-03-23T17:01:43.784Z,46.97
2019-03-23T17:04:15.924Z,47.75
2019-03-23T17:06:48.398Z,47.71
2019-03-23T17:09:20.974Z,48.16
2019-03-23T17:11:53.170Z,48.72
2019-03-23T17:14:25.716Z,48.92
2019-03-23T17:17:00.203Z,48.63
2019-03-23T17:19:32.098Z,49.22
2019-03-23T17:22:04.426Z,49.15
2019-03-23T17:24:36.674Z,50.56
2019-03-23T17:27:09.018Z,51.42
2019-03-23T17:29:41.476Z,51.92
2019-03-23T17:32:14.167Z,51.67
2019-03-23T17:34:46.547Z,51.70
2019-03-23T17:37:18.853Z,51.45
2019-03-23T17:39:51.175Z,51.85
2019-03-23T17:42:23.721Z,52.17
2019-03-23T17:44:55.965Z,52.69
2019-03-23T17:47:28.249Z,53.34
2019-03-23T17:50:00.482Z,53.61
2019-03-23T17:52:32.778Z,54.08
2019-03-23T17:55:05.098Z,54.31
2019-03-23T17:57:37.385Z,54.62
2019-03-23T18:00:09.716Z,55.21
2019-03-23T18:02:43.114Z,55.19
2019-03-23T18:05:15.815Z,55.61
2019-03-23T18:07:47.951Z,55.17
2019-03-23T18:10:20.298Z,55.12
2019-03-23T18:12:52.526Z,55.34
2019-03-23T18:15:24.835Z,55.54
2019-03-23T18:17:57.073Z,55.92
2019-03-23T18:20:29.555Z,56.33
2019-03-23T18:23:01.797Z,57.25
2019-03-23T18:25:34.015Z,57.44
2019-03-23T18:28:06.436Z,57.87
2019-03-23T18:30:38.800Z,57.94
2019-03-23T18:33:11.278Z,58.96
2019-03-23T18:35:43.509Z,59.16
2019-03-23T18:38:15.754Z,60.00
2019-03-23T18:40:47.990Z,60.35
2019-03-23T18:43:27.517Z,61.20
2019-03-23T18:45:55.415Z,61.60
2019-03-23T18:48:27.587Z,62.25
2019-03-23T18:51:00.714Z,62.28
2019-03-23T18:53:33.049Z,62.46
2019-03-23T18:56:05.638Z,62.84
2019-03-23T18:58:38.190Z,63.27
2019-03-23T19:01:10.454Z,63.46
2019-03-23T19:03:42.725Z,63.12
2019-03-23T19:06:15.095Z,63.22
2019-03-23T19:08:47.398Z,63.80
2019-03-23T19:11:19.886Z,63.67
2019-03-23T19:13:52.177Z,63.91
2019-03-23T19:16:24.514Z,64.28
2019-03-23T19:18:56.874Z,64.36
2019-03-23T19:21:29.130Z,64.85
2019-03-23T19:24:01.394Z,65.36
2019-03-23T19:26:33.738Z,65.60
2019-03-23T19:29:05.981Z,65.93
2019-03-23T19:31:38.265Z,66.05
2019-03-23T19:34:10.540Z,66.32
2019-03-23T19:36:42.804Z,66.79
2019-03-23T19:39:15.033Z,66.88
2019-03-23T19:41:47.356Z,67.18
2019-03-23T19:44:19.616Z,67.33
2019-03-23T19:46:53.024Z,67.70
2019-03-23T19:49:25.266Z,67.47
2019-03-23T19:51:57.560Z,68.05
2019-03-23T19:54:30.001Z,68.25
2019-03-23T19:57:02.365Z,68.26
2019-03-23T19:59:34.632Z,68.70
2019-03-23T20:02:06.906Z,68.81
2019-03-23T20:04:39.145Z,69.00
2019-03-23T20:07:11.471Z,69.26
2019-03-23T20:09:43.751Z,69.55
2019-03-23T20:12:17.830Z,69.40
2019-03-23T20:14:50.796Z,69.85
2019-03-23T20:17:23.137Z,69.75
2019-03-23T20:19:55.667Z,70.22
2019-03-23T20:22:28.453Z,70.24
2019-03-23T20:25:01.052Z,70.63
2019-03-23T20:27:34.384Z,71.03
2019-03-23T20:30:06.754Z,71.08
2019-03-23T20:32:39.325Z,71.41
2019-03-23T20:35:12.775Z,71.57
2019-03-23T20:37:45.131Z,71.41
2019-03-23T20:40:17.446Z,72.03
2019-03-23T20:42:49.842Z,71.78
2019-03-23T20:45:22.468Z,72.00
2019-03-23T20:47:55.129Z,72.19
2019-03-23T20:50:27.411Z,72.14
2019-03-23T20:52:59.873Z,72.47
2019-03-23T20:55:32.101Z,72.86
2019-03-23T20:58:04.442Z,73.21
2019-03-23T21:00:36.750Z,73.23
2019-03-23T21:03:10.098Z,73.12
2019-03-23T21:05:42.404Z,73.55
2019-03-23T21:08:14.847Z,73.35
2019-03-23T21:10:47.205Z,73.68
2019-03-23T21:13:20.037Z,73.95
2019-03-23T21:15:52.283Z,73.97
2019-03-23T21:18:24.552Z,73.80
2019-03-23T21:20:56.811Z,73.96
2019-03-23T21:23:29.067Z,74.03
2019-03-23T21:26:01.346Z,74.05
2019-03-23T21:28:33.618Z,73.92
2019-03-23T21:31:06.862Z,74.09
2019-03-23T21:33:39.229Z,74.06
2019-03-23T21:36:11.453Z,74.35
2019-03-23T21:38:43.795Z,74.24
2019-03-23T21:41:16.220Z,74.55
2019-03-23T21:43:48.494Z,74.47
2019-03-23T21:46:21.563Z,74.58
2019-03-23T21:48:54.001Z,74.77
2019-03-23T21:51:26.252Z,74.61
2019-03-23T21:53:58.522Z,74.65
2019-03-23T21:56:31.126Z,74.76
2019-03-23T21:59:03.580Z,74.83
2019-03-23T22:01:35.869Z,74.70
2019-03-23T22:04:08.172Z,74.88
2019-03-23T22:06:40.708Z,74.95
2019-03-23T22:09:12.971Z,75.01
2019-03-23T22:11:45.256Z,74.93
2019-03-23T22:14:17.534Z,74.90
2019-03-23T22:16:49.609Z,75.01
2019-03-23T22:19:22.032Z,74.87
2019-03-23T22:21:54.378Z,75.20
2019-03-23T22:24:26.657Z,75.22
2019-03-23T22:26:58.940Z,75.12
2019-03-23T22:29:31.254Z,75.42
2019-03-23T22:32:04.590Z,75.40
2019-03-23T22:34:36.863Z,75.32
2019-03-23T22:37:09.168Z,75.30
2019-03-23T22:39:41.604Z,75.58
2019-03-23T22:42:13.949Z,75.57
2019-03-23T22:44:52.392Z,75.55
2019-03-23T22:47:20.357Z,75.55
2019-03-23T22:49:53.273Z,75.53
2019-03-23T22:52:25.613Z,75.81
2019-03-23T22:54:58.044Z,75.99
2019-03-23T22:57:30.615Z,75.64
2019-03-23T23:00:03.100Z,75.64
2019-03-23T23:02:37.546Z,75.74
2019-03-23T23:05:10.093Z,75.84
2019-03-23T23:07:42.440Z,75.90
2019-03-23T23:10:14.949Z,76.00
2019-03-23T23:12:47.281Z,75.86
2019-03-23T23:15:19.553Z,75.92
2019-03-23T23:17:51.893Z,75.97
2019-03-23T23:20:24.128Z,76.27
2019-03-23T23:22:56.489Z,76.18
2019-03-23T23:25:28.779Z,76.30
2019-03-23T23:28:01.147Z,76.39
2019-03-23T23:30:33.476Z,76.34
2019-03-23T23:33:05.723Z,76.47
2019-03-23T23:35:37.984Z,76.25
2019-03-23T23:38:10.405Z,76.45
2019-03-23T23:40:42.701Z,76.64
2019-03-23T23:43:14.989Z,76.72
2019-03-23T23:45:47.431Z,76.23
2019-03-23T23:48:19.710Z,76.45
2019-03-23T23:50:51.919Z,76.50
2019-03-23T23:53:24.763Z,76.45
2019-03-23T23:55:56.987Z,76.70
2019-03-23T23:58:29.330Z,76.72
